Gray, Louisiana
Current Conditions -  °F | °C
As of 1:55 AM on Saturday 25 Oct 2014 (Local Time) from KHUM Reporting Station
Clear Clear  
Wind Chill: 56°   Ceiling: Unl
Heat Index: 56°   Visibility: 7mi
Dew Point: 50°   Wind: 5mph
Humidity: 82%   Direction: 350°N
Pressure: 30.1"   Gusts: NA
Location:  29.68°N, 90.78°W
Report Text: KHUM 250655Z AUTO 35004KT 7SM CLR 13/10 A3010 RMK AO2 T01330102
Loading
Personal Weather Stations






























Interactive Weather Map
Tropical Storm Tracking
New forecast layout! Learn more

10-Day Weather Forecast

Advertisements
Track Severe Weather on mobile